| Date | Time | Temp. (oF) | Dew Point (oF) | Rel. Hum. (%) | Press. (in.) | Wind Dir. | Wind Speed (mph) | Hourly Rainfall (in.) |
|
|---|---|---|---|---|---|---|---|---|---|
| 1 | 10/31 | 00:00 | 40 | 33 | 77 | 30.04 | W | 0 | 0.00 |
| 2 | 10/30 | 23:00 | 43 | 34 | 72 | 30.03 | ENE | 0 | 0.00 |
| 3 | 10/30 | 22:00 | 45 | 34 | 67 | 30.06 | WSW | 1 | 0.00 |
| 4 | 10/30 | 21:00 | 46 | 35 | 66 | 30.03 | W | 2 | 0.00 |
| 5 | 10/30 | 20:00 | 47 | 35 | 64 | 30.02 | SSW | 2 | 0.00 |
| 6 | 10/30 | 19:00 | 49 | 36 | 62 | 30.00 | SW | 1 | 0.00 |
| 7 | 10/30 | 18:00 | 52 | 36 | 56 | 29.96 | WSW | 1 | 0.00 |
| 8 | 10/30 | 17:00 | 53 | 36 | 53 | 29.95 | W | 5 | 0.00 |
| 9 | 10/30 | 16:00 | 54 | 36 | 51 | 29.94 | W | 12 | 0.00 |
| 10 | 10/30 | 15:00 | 55 | 36 | 50 | 29.93 | WSW | 4 | 0.00 |
| 11 | 10/30 | 14:00 | 53 | 36 | 53 | 29.95 | NNE | 7 | 0.00 |
| 12 | 10/30 | 13:00 | 52 | 35 | 54 | 29.95 | N | 6 | 0.00 |
| 13 | 10/30 | 12:00 | 51 | 34 | 54 | 29.96 | N | 7 | 0.00 |
| 14 | 10/30 | 11:00 | 50 | 35 | 57 | 29.95 | W | 5 | 0.00 |
| 15 | 10/30 | 10:00 | 50 | 34 | 56 | 29.93 | W | 10 | 0.00 |
| 16 | 10/30 | 09:00 | 46 | 34 | 63 | 29.91 | S | 1 | 0.00 |
| 17 | 10/30 | 08:00 | 41 | 32 | 71 | 29.89 | SW | 4 | 0.00 |
| 18 | 10/30 | 07:00 | 41 | 31 | 68 | 29.86 | SSW | 1 | 0.00 |
| 19 | 10/30 | 06:00 | 43 | 31 | 63 | 29.84 | W | 1 | 0.00 |
| 20 | 10/30 | 05:00 | 45 | 31 | 60 | 29.82 | W | 8 | 0.00 |
| 21 | 10/30 | 04:00 | 45 | 31 | 60 | 29.81 | WSW | 0 | 0.00 |
| 22 | 10/30 | 03:00 | 44 | 34 | 68 | 29.80 | SSW | 2 | 0.00 |
| 23 | 10/30 | 02:00 | 44 | 37 | 77 | 29.78 | NNW | 0 | 0.00 |
| 24 | 10/30 | 01:00 | 46 | 37 | 72 | 29.76 | S | 0 | 0.00 |